Goldsboro, Maryland
Current Conditions -  °F | °C
As of 11:58 AM on Sunday 23 Nov 2014 (Local Time) from KDOV Reporting Station
Few Clouds Few Clouds  
Wind Chill: 52°   Ceiling: Unl
Heat Index: 52°   Visibility: 10mi
Dew Point: 32°   Wind: 8mph
Humidity: 46%   Direction: 190°S
Pressure: 30.17"   Gusts: NA
Location:  39.03°N, 75.79°W
Report Text: KDOV 231658Z AUTO 19007KT 10SM FEW200 11/00 A3017 RMK AO2 SLP220 T01120000
Loading
Personal Weather Stations






























Interactive Weather Map New forecast layout! Learn more

10-Day Weather Forecast

Advertisements
Track Severe Weather on mobile